Time;durP1;ratioP1;P1;durP2;ratioP2;P2;SDS_P1;SDS_P2;PMS_P1;PMS_P2;Temp;Humidity;BMP_temperature;BMP_pressure;BME280_temperature;BME280_humidity;BME280_pressure;Samples;Min_cycle;Max_cycle;Signal;HPM_P1;HPM_P2
2022/01/24 00:01:10;;;;;;;2.92;2.65;;;5.30;99.90;;;;;;5013262;28;20787;-63
2022/01/24 00:03:40;;;;;;;2.45;2.30;;;5.30;99.90;;;;;;5006632;28;20268;-63
2022/01/24 00:06:11;;;;;;;2.88;2.60;;;5.30;99.90;;;;;;5006977;28;20237;-63
2022/01/24 00:08:39;;;;;;;2.10;1.90;;;5.30;99.90;;;;;;5008981;28;20276;-63
2022/01/24 00:11:10;;;;;;;2.55;2.40;;;5.20;99.90;;;;;;5013142;28;20193;-63
2022/01/24 00:16:34;;;;;;;2.67;2.22;;;5.20;99.90;;;;;;5012946;28;20312;-63
2022/01/24 00:27:19;;;;;;;1.92;1.83;;;5.10;99.90;;;;;;5012872;28;20312;-63
2022/01/24 00:29:47;;;;;;;2.25;2.05;;;5.10;99.90;;;;;;5012700;28;20276;-63
2022/01/24 00:32:15;;;;;;;2.45;2.22;;;5.20;99.90;;;;;;5012547;28;20320;-63
2022/01/24 00:34:44;;;;;;;1.70;1.60;;;5.20;99.90;;;;;;5012904;28;20312;-64
2022/01/24 00:37:12;;;;;;;2.17;2.00;;;5.20;99.90;;;;;;5012547;28;20304;-63
2022/01/24 00:39:40;;;;;;;2.38;2.17;;;5.30;99.90;;;;;;5012424;28;20197;-63
2022/01/24 00:42:19;;;;;;;2.10;2.00;;;5.30;99.90;;;;;;5012277;28;20717;-63
2022/01/24 00:45:01;;;;;;;1.55;1.45;;;5.30;99.90;;;;;;5012439;28;20213;-64
2022/01/24 00:47:44;;;;;;;1.98;1.70;;;5.30;99.90;;;;;;5012549;28;20197;-63
2022/01/24 00:53:12;;;;;;;2.30;2.10;;;5.30;99.90;;;;;;5012200;28;20760;-63
2022/01/24 00:55:41;;;;;;;2.20;2.00;;;5.20;99.90;;;;;;5012426;28;20856;-62
2022/01/24 00:58:09;;;;;;;2.20;2.00;;;5.20;99.90;;;;;;5012310;28;20324;-63
2022/01/24 01:00:37;;;;;;;1.85;1.70;;;5.30;99.90;;;;;;5012304;28;20284;-62
2022/01/24 01:03:06;;;;;;;2.78;1.90;;;5.30;99.90;;;;;;5011877;28;20275;-63
2022/01/24 01:05:54;;;;;;;1.55;1.45;;;5.30;99.90;;;;;;5012409;28;20209;-63
2022/01/24 01:19:22;;;;;;;1.50;1.40;;;5.20;99.90;;;;;;5012143;28;20287;-63
2022/01/24 01:21:51;;;;;;;1.40;1.30;;;5.30;99.90;;;;;;5011908;28;20300;-63
2022/01/24 01:24:19;;;;;;;1.33;1.23;;;5.30;99.90;;;;;;5011827;28;20280;-63
2022/01/24 01:26:52;;;;;;;1.63;1.52;;;5.30;99.90;;;;;;5011455;28;20296;-62
2022/01/24 01:29:24;;;;;;;1.65;1.55;;;5.30;99.90;;;;;;5011934;28;20288;-63
2022/01/24 01:32:01;;;;;;;2.33;2.00;;;5.30;99.90;;;;;;5011732;28;20292;-63
2022/01/24 01:37:42;;;;;;;0.95;0.95;;;5.30;99.90;;;;;;5011422;28;20744;-63
2022/01/24 01:54:12;;;;;;;1.40;1.13;;;5.20;99.90;;;;;;5011539;28;20637;-63
2022/01/24 01:56:40;;;;;;;1.27;1.17;;;5.20;99.90;;;;;;5011498;28;20205;-63
2022/01/24 01:59:08;;;;;;;3.17;1.33;;;5.30;99.90;;;;;;5011348;28;20311;-63
2022/01/24 02:01:37;;;;;;;1.73;1.40;;;5.30;99.90;;;;;;5011471;28;20233;-63
2022/01/24 02:04:05;;;;;;;1.63;1.30;;;5.30;99.90;;;;;;5011152;28;20267;-63
2022/01/24 02:06:33;;;;;;;1.75;1.40;;;5.30;99.90;;;;;;5011410;28;20656;-63
2022/01/24 02:09:08;;;;;;;1.60;1.10;;;5.40;99.90;;;;;;5015399;28;20271;-63
2022/01/24 02:11:36;;;;;;;1.65;1.40;;;5.40;99.90;;;;;;5015614;28;20205;-63
2022/01/24 02:14:08;;;;;;;1.60;1.50;;;5.50;99.90;;;;;;5009616;28;20229;-63
2022/01/24 02:16:47;;;;;;;1.48;1.38;;;5.50;99.90;;;;;;5011077;28;20251;-63
2022/01/24 02:19:31;;;;;;;1.30;1.20;;;5.30;99.90;;;;;;5011426;28;20312;-63
2022/01/24 02:22:38;;;;;;;3.83;1.40;;;5.30;99.90;;;;;;5011117;28;20308;-62
2022/01/24 02:24:58;;;;;;;1.52;1.38;;;5.30;99.90;;;;;;5011404;28;20248;-63
2022/01/24 02:27:40;;;;;;;1.20;1.10;;;5.30;99.90;;;;;;5005420;28;20307;-63
2022/01/24 02:30:15;;;;;;;1.33;1.23;;;5.30;99.90;;;;;;5011290;28;20734;-63
2022/01/24 02:32:43;;;;;;;1.10;1.10;;;5.30;99.90;;;;;;5010977;28;20304;-63
2022/01/24 02:35:11;;;;;;;1.20;1.10;;;5.40;99.90;;;;;;5011330;28;20284;-63
2022/01/24 02:37:40;;;;;;;1.40;1.30;;;5.50;99.90;;;;;;5010714;28;20317;-63
2022/01/24 02:40:13;;;;;;;1.10;1.00;;;5.50;99.90;;;;;;5013745;28;20201;-64
2022/01/24 02:48:26;;;;;;;1.73;1.30;;;5.50;99.90;;;;;;5011807;28;20212;-62
2022/01/24 02:53:42;;;;;;;1.38;0.98;;;5.40;99.90;;;;;;5014404;28;20307;-62
2022/01/24 02:56:10;;;;;;;0.88;0.85;;;5.40;99.90;;;;;;5014539;28;20215;-63
2022/01/24 02:58:38;;;;;;;1.00;1.00;;;5.40;99.90;;;;;;5014504;28;20316;-62
2022/01/24 03:01:07;;;;;;;0.95;0.95;;;5.40;99.90;;;;;;5014670;28;20299;-61
2022/01/24 03:03:37;;;;;;;0.90;0.90;;;5.50;99.90;;;;;;5014223;28;20231;-63
2022/01/24 03:06:05;;;;;;;1.85;0.90;;;5.40;99.90;;;;;;5014096;28;20280;-62
2022/01/24 03:08:37;;;;;;;1.08;0.98;;;5.40;99.90;;;;;;5014335;28;20208;-62
2022/01/24 03:11:06;;;;;;;1.10;1.00;;;5.40;99.90;;;;;;5009981;28;20236;-62
2022/01/24 03:13:34;;;;;;;0.80;0.80;;;5.20;99.90;;;;;;5036667;23;20308;-62
2022/01/24 03:16:04;;;;;;;2.17;0.90;;;5.20;99.90;;;;;;5013636;28;20368;-62
2022/01/24 03:18:32;;;;;;;1.42;1.05;;;5.20;99.90;;;;;;5013997;28;20221;-63
2022/01/24 03:21:01;;;;;;;1.20;1.10;;;5.30;99.90;;;;;;5014077;28;20718;-64
2022/01/24 03:23:29;;;;;;;1.15;0.90;;;5.30;99.90;;;;;;5013782;28;20271;-62
2022/01/24 03:25:57;;;;;;;1.00;1.00;;;5.40;99.90;;;;;;5013864;28;20288;-64
2022/01/24 03:28:26;;;;;;;1.20;1.10;;;5.40;99.90;;;;;;5014109;28;20296;-63
2022/01/24 03:30:54;;;;;;;0.80;0.80;;;5.40;99.90;;;;;;5014002;28;20240;-63
2022/01/24 03:33:22;;;;;;;2.65;1.20;;;5.40;99.90;;;;;;5013857;28;20717;-63
2022/01/24 03:35:50;;;;;;;1.77;0.95;;;5.40;99.90;;;;;;5013978;28;20312;-64
2022/01/24 03:38:18;;;;;;;1.08;0.98;;;5.30;99.90;;;;;;5013717;28;20733;-63
2022/01/24 03:40:46;;;;;;;0.90;0.80;;;5.30;99.90;;;;;;5013600;28;20292;-63
2022/01/24 03:43:13;;;;;;;1.10;0.80;;;5.30;99.90;;;;;;5013295;28;20316;-62
2022/01/24 03:45:44;;;;;;;0.82;0.82;;;5.30;99.90;;;;;;5013549;28;20288;-64
2022/01/24 03:48:26;;;;;;;1.10;1.00;;;5.30;99.90;;;;;;5013571;28;20654;-63
2022/01/24 03:50:54;;;;;;;1.58;1.05;;;5.20;99.90;;;;;;5013383;28;20263;-63
2022/01/24 03:53:22;;;;;;;1.33;1.23;;;5.20;99.90;;;;;;5013287;28;20263;-63
2022/01/24 03:55:50;;;;;;;1.13;1.00;;;5.20;99.90;;;;;;5013460;28;20292;-64
2022/01/24 03:58:18;;;;;;;1.63;1.00;;;5.20;99.90;;;;;;5013194;28;20215;-63
2022/01/24 04:00:47;;;;;;;1.00;1.00;;;5.20;99.90;;;;;;5013443;28;20327;-63
2022/01/24 04:03:16;;;;;;;1.40;1.05;;;5.20;99.90;;;;;;5013096;28;20263;-63
2022/01/24 04:05:44;;;;;;;1.63;1.10;;;5.20;99.90;;;;;;5013628;28;20563;-63
2022/01/24 04:08:12;;;;;;;1.23;1.10;;;5.20;99.90;;;;;;5012874;28;20706;-62
2022/01/24 04:10:45;;;;;;;1.00;0.90;;;5.20;99.90;;;;;;5012940;28;20296;-63
2022/01/24 04:13:25;;;;;;;1.20;0.70;;;5.20;99.90;;;;;;5006971;28;20416;-62
2022/01/24 04:16:12;;;;;;;0.85;0.85;;;5.20;99.90;;;;;;5013130;28;20288;-62
2022/01/24 04:18:49;;;;;;;0.88;0.70;;;5.20;99.90;;;;;;5013055;28;20221;-62
2022/01/24 04:21:21;;;;;;;0.70;0.70;;;5.20;99.90;;;;;;5012921;28;20674;-62
2022/01/24 04:23:55;;;;;;;1.00;0.90;;;5.20;99.90;;;;;;5012988;28;20256;-65
2022/01/24 04:26:23;;;;;;;1.00;1.00;;;5.20;99.90;;;;;;5007375;28;20236;-63
2022/01/24 04:28:51;;;;;;;0.80;0.80;;;5.20;99.90;;;;;;5012870;28;20293;-63
2022/01/24 04:31:22;;;;;;;0.75;0.75;;;5.10;99.90;;;;;;5012800;28;20205;-62
2022/01/24 04:33:50;;;;;;;1.30;0.90;;;5.10;99.90;;;;;;5012617;28;20228;-62
2022/01/24 04:36:20;;;;;;;0.73;0.73;;;5.10;99.90;;;;;;5012389;28;20280;-63
2022/01/24 04:38:48;;;;;;;1.67;0.80;;;5.10;99.90;;;;;;5012497;28;20643;-64
2022/01/24 04:41:20;;;;;;;1.02;0.88;;;5.10;99.90;;;;;;5012538;28;20201;-65
2022/01/24 04:43:56;;;;;;;1.10;1.00;;;5.10;99.90;;;;;;5012295;28;20263;-64
2022/01/24 04:46:54;;;;;;;0.80;0.80;;;5.10;99.90;;;;;;5012391;28;20209;-65
2022/01/24 04:52:16;;;;;;;1.33;0.80;;;5.10;99.90;;;;;;5012114;28;20628;-64
2022/01/24 04:54:44;;;;;;;1.10;0.90;;;5.10;99.90;;;;;;5012599;28;20283;-65
2022/01/24 04:57:13;;;;;;;0.80;0.80;;;5.00;99.90;;;;;;5012053;28;20339;-65
2022/01/24 04:59:44;;;;;;;1.10;1.00;;;5.10;99.90;;;;;;5012275;28;20259;-65
2022/01/24 05:02:14;;;;;;;1.13;1.00;;;5.10;99.90;;;;;;5011157;28;20297;-64
2022/01/24 05:04:42;;;;;;;1.20;1.10;;;5.00;99.90;;;;;;5012309;28;20216;-65
2022/01/24 05:07:10;;;;;;;1.50;1.10;;;5.00;99.90;;;;;;5011981;28;20285;-65
2022/01/24 05:09:42;;;;;;;0.98;0.98;;;5.00;99.90;;;;;;5012033;28;20197;-65
2022/01/24 05:12:24;;;;;;;1.20;1.10;;;5.00;99.90;;;;;;5005545;28;20236;-63
2022/01/24 05:23:32;;;;;;;1.13;1.02;;;5.00;99.90;;;;;;5010853;28;20252;-62
2022/01/24 05:26:05;;;;;;;2.55;1.13;;;5.00;99.90;;;;;;5012234;28;20239;-63
2022/01/24 05:28:34;;;;;;;3.47;1.00;;;5.10;99.90;;;;;;5011707;28;20280;-63
2022/01/24 05:31:06;;;;;;;2.20;1.25;;;5.10;99.90;;;;;;5007300;28;20284;-63
2022/01/24 05:33:35;;;;;;;1.58;1.48;;;5.10;99.90;;;;;;5005504;28;20296;-63
2022/01/24 05:36:05;;;;;;;1.70;1.60;;;5.10;99.90;;;;;;5016755;28;20297;-64
2022/01/24 05:38:33;;;;;;;1.88;1.77;;;5.10;99.90;;;;;;5010519;28;20284;-63
2022/01/24 05:41:05;;;;;;;2.17;2.00;;;5.20;99.90;;;;;;5011155;28;20271;-63
2022/01/24 05:43:35;;;;;;;3.67;2.03;;;5.20;99.90;;;;;;5011718;28;20312;-63
2022/01/24 05:46:03;;;;;;;1.73;1.63;;;5.20;99.90;;;;;;5014986;28;20201;-63
2022/01/24 05:48:31;;;;;;;1.30;1.20;;;5.20;99.90;;;;;;5006454;28;20233;-64
2022/01/24 05:51:00;;;;;;;1.52;1.15;;;5.10;99.90;;;;;;4999997;28;20276;-64
2022/01/24 05:53:33;;;;;;;1.67;1.58;;;5.00;99.90;;;;;;5005619;28;20996;-64
2022/01/24 05:56:05;;;;;;;2.90;2.00;;;5.10;99.90;;;;;;5006128;28;20291;-64
2022/01/24 05:58:33;;;;;;;1.55;1.45;;;5.10;99.90;;;;;;5009437;28;20240;-64
2022/01/24 06:01:01;;;;;;;1.42;1.23;;;5.00;99.90;;;;;;5005871;28;20217;-65
2022/01/24 06:03:33;;;;;;;1.30;1.20;;;5.00;99.90;;;;;;5003457;28;20249;-64
2022/01/24 06:06:02;;;;;;;1.17;1.10;;;5.00;99.90;;;;;;5005031;28;20207;-64
2022/01/24 06:08:33;;;;;;;1.52;1.10;;;5.00;99.90;;;;;;5005819;28;20312;-64
2022/01/24 06:11:05;;;;;;;1.50;1.20;;;5.00;99.90;;;;;;5005804;28;20906;-64
2022/01/24 06:13:33;;;;;;;1.83;1.30;;;4.90;99.90;;;;;;5006700;28;20331;-63
2022/01/24 06:16:01;;;;;;;1.38;1.10;;;4.90;99.90;;;;;;5010136;28;20644;-64
2022/01/24 06:18:33;;;;;;;1.20;1.05;;;4.90;99.90;;;;;;5009280;28;20686;-64
2022/01/24 06:21:02;;;;;;;2.13;1.05;;;4.90;99.90;;;;;;5009531;28;20264;-64
2022/01/24 06:23:31;;;;;;;1.50;1.40;;;4.90;99.90;;;;;;5003113;28;20303;-64
2022/01/24 06:25:59;;;;;;;1.60;1.10;;;4.90;99.90;;;;;;5003416;28;20301;-64
2022/01/24 06:28:27;;;;;;;1.33;1.23;;;4.90;99.90;;;;;;5003273;28;20682;-66
2022/01/24 06:30:55;;;;;;;1.00;0.90;;;4.90;99.90;;;;;;5004195;28;20288;-66
2022/01/24 06:33:27;;;;;;;1.15;1.05;;;4.90;99.90;;;;;;5007979;28;20259;-65
2022/01/24 06:35:55;;;;;;;1.15;1.05;;;5.00;99.90;;;;;;5009527;28;20303;-65
2022/01/24 06:38:25;;;;;;;1.65;1.17;;;5.00;99.90;;;;;;5008854;28;20308;-66
2022/01/24 06:40:53;;;;;;;1.20;1.10;;;5.00;99.90;;;;;;5010974;28;20233;-66
2022/01/24 06:43:21;;;;;;;1.30;1.20;;;5.00;99.90;;;;;;5009515;28;20236;-66
2022/01/24 06:45:49;;;;;;;3.20;1.70;;;4.90;99.90;;;;;;5009552;28;20304;-65
2022/01/24 06:48:17;;;;;;;4.00;2.35;;;5.80;99.90;;;;;;5009082;28;20205;-64
2022/01/24 06:50:45;;;;;;;6.80;3.47;;;6.20;99.90;;;;;;5015498;28;20200;-65
2022/01/24 06:53:13;;;;;;;1.65;1.33;;;6.90;99.90;;;;;;5008553;28;20881;-65
2022/01/24 06:55:43;;;;;;;1.75;1.20;;;6.80;99.90;;;;;;5014293;28;20228;-64
2022/01/24 06:58:10;;;;;;;3.17;1.45;;;7.10;99.90;;;;;;5009004;28;20304;-65
2022/01/24 07:00:38;;;;;;;4.20;1.70;;;7.20;99.90;;;;;;5009282;28;20253;-65
2022/01/24 07:03:08;;;;;;;1.38;1.20;;;7.20;99.90;;;;;;5008767;28;20951;-65
2022/01/24 07:05:36;;;;;;;1.27;1.17;;;6.80;99.90;;;;;;5009202;28;20204;-65
2022/01/24 07:08:06;;;;;;;10.82;6.93;;;6.30;99.90;;;;;;5012907;28;20339;-65
2022/01/24 07:10:34;;;;;;;1.60;1.50;;;6.00;99.90;;;;;;5008634;28;20285;-65
2022/01/24 07:13:08;;;;;;;2.30;2.10;;;5.70;99.90;;;;;;5008023;28;20956;-65
2022/01/24 07:15:44;;;;;;;1.90;1.80;;;5.50;99.90;;;;;;5008860;28;20288;-66
2022/01/24 07:18:57;;;;;;;2.10;1.75;;;5.30;99.90;;;;;;5008282;28;20204;-65
2022/01/24 07:21:07;;;;;;;2.88;2.10;;;5.20;99.90;;;;;;5008617;28;20308;-65
2022/01/24 07:23:35;;;;;;;2.20;2.10;;;5.10;99.90;;;;;;5008990;28;20225;-65
2022/01/24 07:26:07;;;;;;;1.63;1.52;;;5.10;99.90;;;;;;5016805;28;20209;-66
2022/01/24 07:28:37;;;;;;;2.40;1.88;;;5.10;99.90;;;;;;5013658;28;20635;-65
2022/01/24 07:31:04;;;;;;;2.45;1.90;;;5.10;99.90;;;;;;5014039;28;20225;-66
2022/01/24 07:33:33;;;;;;;2.05;1.95;;;5.10;99.90;;;;;;5018836;28;20256;-66
2022/01/24 07:36:00;;;;;;;2.10;2.00;;;5.10;99.90;;;;;;5011711;28;20288;-65
2022/01/24 07:38:30;;;;;;;2.35;2.08;;;5.10;99.90;;;;;;5010531;28;20448;-66
2022/01/24 07:41:00;;;;;;;2.13;1.92;;;5.00;99.90;;;;;;5011492;28;20312;-65
2022/01/24 07:43:33;;;;;;;2.78;2.58;;;5.00;99.90;;;;;;5011409;28;20370;-65
2022/01/24 07:46:06;;;;;;;3.40;2.53;;;5.00;99.90;;;;;;5011854;28;20201;-66
2022/01/24 07:48:34;;;;;;;2.28;2.17;;;5.00;99.90;;;;;;5011780;28;20257;-66
2022/01/24 07:51:06;;;;;;;2.85;2.65;;;4.90;99.90;;;;;;5011976;28;20223;-65
2022/01/24 07:53:34;;;;;;;2.55;2.35;;;4.90;99.90;;;;;;5013020;28;20275;-66
2022/01/24 07:56:10;;;;;;;3.45;3.25;;;5.00;99.90;;;;;;5013780;28;20216;-65
2022/01/24 07:58:40;;;;;;;3.20;3.00;;;5.00;99.90;;;;;;5006756;28;20285;-65
2022/01/24 08:01:10;;;;;;;3.03;2.90;;;5.00;99.90;;;;;;5007475;28;20321;-66
2022/01/24 08:03:38;;;;;;;4.30;3.00;;;5.00;99.90;;;;;;5013057;28;20694;-66
2022/01/24 08:06:07;;;;;;;3.35;3.05;;;5.10;99.90;;;;;;5013119;28;20284;-66
2022/01/24 08:08:35;;;;;;;3.35;3.08;;;5.10;99.90;;;;;;5011998;28;20202;-66
2022/01/24 08:11:03;;;;;;;3.63;3.42;;;5.10;99.90;;;;;;5012887;28;20252;-66
2022/01/24 08:13:31;;;;;;;2.80;2.70;;;5.10;99.90;;;;;;5012174;28;20765;-66
2022/01/24 08:15:59;;;;;;;2.75;2.60;;;5.10;99.90;;;;;;5013070;28;20292;-65
2022/01/24 08:18:28;;;;;;;2.83;2.63;;;5.00;99.90;;;;;;5012740;28;20228;-66
2022/01/24 08:20:56;;;;;;;3.45;3.25;;;5.10;99.90;;;;;;5012815;28;20587;-66
2022/01/24 08:23:24;;;;;;;3.65;2.55;;;5.20;99.90;;;;;;5012746;28;20320;-66
2022/01/24 08:25:55;;;;;;;3.53;3.17;;;5.20;99.90;;;;;;5013011;28;20216;-66
2022/01/24 08:28:23;;;;;;;2.95;2.75;;;5.30;99.90;;;;;;5012544;28;20288;-66
2022/01/24 08:30:52;;;;;;;3.25;2.95;;;5.30;99.90;;;;;;5012912;28;20243;-66
2022/01/24 08:33:20;;;;;;;8.65;3.58;;;5.40;99.90;;;;;;5012499;28;20655;-66
2022/01/24 08:35:51;;;;;;;3.05;2.47;;;5.40;99.90;;;;;;5012854;28;20233;-66
2022/01/24 08:38:21;;;;;;;3.30;3.10;;;5.40;99.90;;;;;;5012640;28;20236;-66
2022/01/24 08:40:52;;;;;;;3.10;2.80;;;5.40;99.90;;;;;;5012487;28;20292;-66
2022/01/24 08:43:36;;;;;;;3.60;3.30;;;5.40;99.90;;;;;;5012457;28;20257;-66
2022/01/24 08:46:05;;;;;;;2.90;2.80;;;5.30;99.90;;;;;;5012543;28;20209;-66
2022/01/24 08:48:35;;;;;;;3.70;3.45;;;5.40;99.90;;;;;;5012412;28;20282;-66
2022/01/24 08:51:05;;;;;;;2.92;2.72;;;5.30;99.90;;;;;;5012591;28;20240;-66
2022/01/24 08:53:34;;;;;;;2.78;2.35;;;5.30;99.90;;;;;;5012026;28;20225;-66
2022/01/24 08:56:05;;;;;;;3.10;2.80;;;5.40;99.90;;;;;;5012637;28;20197;-66
2022/01/24 08:58:34;;;;;;;2.88;2.78;;;5.40;99.90;;;;;;5005983;28;20360;-66
2022/01/24 09:01:03;;;;;;;4.15;3.25;;;5.30;99.90;;;;;;5012154;28;20297;-66
2022/01/24 09:03:36;;;;;;;3.28;3.03;;;5.30;99.90;;;;;;5011741;28;20225;-66
2022/01/24 09:06:07;;;;;;;3.40;3.20;;;5.40;99.90;;;;;;5012171;28;20236;-66
2022/01/24 09:08:36;;;;;;;2.97;2.65;;;5.40;99.90;;;;;;5011902;28;20231;-66
2022/01/24 09:11:04;;;;;;;3.08;2.67;;;5.40;99.90;;;;;;5007688;28;20292;-66
2022/01/24 09:13:33;;;;;;;3.35;3.05;;;5.30;99.90;;;;;;5026683;22;20265;-63
2022/01/24 09:16:01;;;;;;;2.65;2.45;;;5.40;99.90;;;;;;5011784;28;20239;-63
2022/01/24 09:18:30;;;;;;;2.92;2.60;;;5.40;99.90;;;;;;5011791;28;20287;-63
2022/01/24 09:20:58;;;;;;;3.17;2.90;;;5.40;99.90;;;;;;5011737;28;20286;-63
2022/01/24 09:23:27;;;;;;;2.92;2.40;;;5.40;99.90;;;;;;5011479;28;20351;-64
2022/01/24 09:25:55;;;;;;;4.72;2.30;;;5.50;99.90;;;;;;5011873;28;20241;-63
2022/01/24 09:28:23;;;;;;;3.97;3.03;;;5.40;99.90;;;;;;5011573;28;20287;-63
2022/01/24 09:30:50;;;;;;;2.42;2.00;;;5.40;99.90;;;;;;5011889;28;20312;-63
2022/01/24 09:33:18;;;;;;;6.03;2.40;;;5.40;99.90;;;;;;5011526;28;20300;-64
2022/01/24 09:35:51;;;;;;;4.65;2.60;;;5.40;99.90;;;;;;5011472;28;20276;-63
2022/01/24 09:38:20;;;;;;;2.30;2.20;;;5.30;99.90;;;;;;5011379;28;20197;-64
2022/01/24 09:40:49;;;;;;;5.43;2.95;;;5.30;99.90;;;;;;5011381;28;20244;-63
2022/01/24 09:43:17;;;;;;;3.25;2.42;;;5.30;99.90;;;;;;5011407;28;20311;-63
2022/01/24 09:45:45;;;;;;;3.40;3.20;;;5.30;99.90;;;;;;5011591;28;20212;-63
2022/01/24 09:48:16;;;;;;;4.70;2.45;;;5.30;99.90;;;;;;5010811;28;20240;-63
2022/01/24 09:50:45;;;;;;;4.03;2.85;;;5.30;99.90;;;;;;5011408;28;20675;-63
2022/01/24 09:53:14;;;;;;;2.60;2.40;;;5.30;99.90;;;;;;5011200;28;20261;-63
2022/01/24 09:55:42;;;;;;;2.53;1.95;;;5.30;99.90;;;;;;5011485;28;20219;-63
2022/01/24 09:58:11;;;;;;;2.50;2.30;;;5.20;99.90;;;;;;5011018;28;20201;-63
2022/01/24 10:00:39;;;;;;;3.17;2.72;;;5.30;99.90;;;;;;5011311;28;20284;-63
2022/01/24 10:03:09;;;;;;;3.38;3.05;;;5.30;99.90;;;;;;5011026;28;20232;-63
2022/01/24 10:05:57;;;;;;;4.13;2.65;;;5.40;99.90;;;;;;5011429;28;20219;-63
2022/01/24 10:08:31;;;;;;;3.05;2.85;;;5.40;99.90;;;;;;5010986;28;20212;-63
2022/01/24 10:11:02;;;;;;;3.67;2.70;;;5.40;99.90;;;;;;5010984;28;20241;-63
2022/01/24 10:16:29;;;;;;;3.30;3.00;;;5.50;99.90;;;;;;5005090;28;20232;-63
2022/01/24 10:19:08;;;;;;;4.50;3.25;;;5.50;99.90;;;;;;5005694;28;20197;-63
2022/01/24 10:22:00;;;;;;;3.92;3.45;;;5.50;99.90;;;;;;5010817;28;20611;-63
2022/01/24 10:24:37;;;;;;;3.47;3.17;;;5.50;99.90;;;;;;5011279;28;20685;-63
2022/01/24 10:27:07;;;;;;;3.58;3.35;;;5.60;99.90;;;;;;5005467;28;20297;-63
2022/01/24 10:29:41;;;;;;;3.60;3.20;;;5.60;99.90;;;;;;5011047;28;20292;-63
2022/01/24 10:32:31;;;;;;;3.53;3.22;;;5.60;99.90;;;;;;5010714;28;20244;-63
2022/01/24 10:35:21;;;;;;;4.47;3.50;;;5.60;99.90;;;;;;5011145;28;20328;-63
2022/01/24 10:37:53;;;;;;;4.07;3.35;;;5.70;99.90;;;;;;5010703;28;20255;-64
2022/01/24 10:40:34;;;;;;;3.70;3.40;;;5.80;99.90;;;;;;5011098;28;20201;-63
2022/01/24 10:43:27;;;;;;;3.00;2.70;;;5.80;99.90;;;;;;5010693;28;20304;-63
2022/01/24 10:45:57;;;;;;;4.30;3.30;;;5.80;99.90;;;;;;4995524;28;20213;-63
2022/01/24 10:48:28;;;;;;;3.30;3.00;;;5.90;99.90;;;;;;5011098;28;20202;-63
2022/01/24 10:51:09;;;;;;;3.72;3.47;;;5.90;99.90;;;;;;5011122;28;20620;-63
2022/01/24 10:53:43;;;;;;;4.45;3.50;;;6.00;99.90;;;;;;5010733;28;20221;-63
2022/01/24 10:56:28;;;;;;;3.50;3.15;;;6.00;99.90;;;;;;5010864;28;20295;-63
2022/01/24 10:59:15;;;;;;;3.95;3.47;;;5.90;99.90;;;;;;5010739;28;20251;-63
2022/01/24 11:01:44;;;;;;;4.13;3.45;;;5.90;99.90;;;;;;5014196;28;20233;-63
2022/01/24 11:04:15;;;;;;;3.92;2.83;;;5.90;99.90;;;;;;5014123;28;20256;-63
2022/01/24 11:06:46;;;;;;;5.43;3.28;;;6.00;99.90;;;;;;5014529;28;20217;-63
2022/01/24 11:09:21;;;;;;;4.60;3.00;;;6.00;99.90;;;;;;5011259;28;20297;-63
2022/01/24 11:11:51;;;;;;;3.28;3.05;;;6.00;99.90;;;;;;5014184;28;20642;-63
2022/01/24 11:14:20;;;;;;;3.75;2.75;;;6.10;99.90;;;;;;5014171;28;20276;-63
2022/01/24 11:16:49;;;;;;;3.50;3.20;;;6.10;99.90;;;;;;5014382;28;20634;-63
2022/01/24 11:19:28;;;;;;;3.28;2.97;;;6.20;99.90;;;;;;5013832;28;20201;-63
2022/01/24 11:21:57;;;;;;;3.50;2.97;;;6.20;99.90;;;;;;5014038;28;20308;-63
2022/01/24 11:24:36;;;;;;;3.50;3.20;;;6.10;99.90;;;;;;5007970;28;20259;-63
2022/01/24 11:27:26;;;;;;;9.38;3.33;;;6.10;99.90;;;;;;5012035;28;20689;-63
2022/01/24 11:29:56;;;;;;;3.72;3.50;;;6.20;99.90;;;;;;5013781;28;20284;-62
2022/01/24 11:32:28;;;;;;;3.28;2.97;;;6.20;99.90;;;;;;5013620;28;20201;-63
2022/01/24 11:34:58;;;;;;;3.55;3.20;;;6.10;99.90;;;;;;5013734;28;20248;-63
2022/01/24 11:37:36;;;;;;;7.47;3.38;;;6.20;99.90;;;;;;5013714;28;20636;-63
2022/01/24 11:40:10;;;;;;;3.40;3.20;;;6.20;99.90;;;;;;5007768;28;20307;-63
2022/01/24 11:42:40;;;;;;;3.15;2.70;;;6.20;99.90;;;;;;5013551;28;20212;-63
2022/01/24 11:45:45;;;;;;;2.67;2.47;;;6.30;99.90;;;;;;5013932;28;20197;-63
2022/01/24 11:48:16;;;;;;;4.45;3.45;;;6.30;99.90;;;;;;5007448;28;20205;-64
2022/01/24 11:50:55;;;;;;;5.40;2.90;;;6.20;99.90;;;;;;5013789;28;20201;-63
2022/01/24 11:53:25;;;;;;;3.72;2.97;;;6.10;99.90;;;;;;5013460;28;21015;-63
2022/01/24 11:55:55;;;;;;;3.80;2.70;;;6.20;99.90;;;;;;5013491;28;20769;-63
2022/01/24 11:58:27;;;;;;;2.75;2.53;;;6.20;99.90;;;;;;5013496;28;20237;-65
2022/01/24 12:01:01;;;;;;;4.55;4.18;;;6.20;99.90;;;;;;5013150;28;20205;-63
2022/01/24 12:03:30;;;;;;;3.70;2.92;;;6.20;99.90;;;;;;5013166;28;20237;-63
2022/01/24 12:06:08;;;;;;;6.68;3.55;;;6.10;99.90;;;;;;5013427;28;20219;-63
2022/01/24 12:09:05;;;;;;;4.20;3.80;;;6.10;99.90;;;;;;5013607;28;20197;-65
2022/01/24 12:11:36;;;;;;;3.33;3.05;;;6.10;99.90;;;;;;5013342;28;20240;-63
2022/01/24 12:14:37;;;;;;;3.50;3.30;;;6.20;99.90;;;;;;5012962;28;20324;-63
2022/01/24 12:17:10;;;;;;;4.10;3.22;;;6.20;99.90;;;;;;5013188;28;20248;-63
2022/01/24 12:19:38;;;;;;;3.03;2.78;;;6.30;99.90;;;;;;5012966;28;20216;-63
2022/01/24 12:22:38;;;;;;;2.92;2.63;;;6.20;99.90;;;;;;5012606;28;20284;-63
2022/01/24 12:25:09;;;;;;;4.55;3.22;;;6.20;99.90;;;;;;5012986;28;20233;-64
2022/01/24 12:28:16;;;;;;;3.67;2.90;;;6.30;99.90;;;;;;5007283;28;20237;-63
2022/01/24 12:31:01;;;;;;;2.78;2.40;;;6.30;99.90;;;;;;5012436;28;20259;-63
2022/01/24 12:33:34;;;;;;;3.08;2.80;;;6.30;99.90;;;;;;5012785;28;20225;-63
2022/01/24 12:36:02;;;;;;;2.90;2.70;;;6.20;99.90;;;;;;5012685;28;20313;-63
2022/01/24 12:38:44;;;;;;;4.65;3.75;;;6.20;99.90;;;;;;5012451;28;20288;-65
2022/01/24 12:41:15;;;;;;;3.35;3.05;;;6.10;99.90;;;;;;5012497;28;20224;-64
2022/01/24 12:43:55;;;;;;;3.05;2.85;;;6.00;99.90;;;;;;5012576;28;20272;-63
2022/01/24 12:46:25;;;;;;;3.40;3.20;;;6.00;99.90;;;;;;5006261;28;20201;-63
2022/01/24 12:48:55;;;;;;;4.35;3.50;;;6.00;99.90;;;;;;5006469;28;20280;-63
2022/01/24 12:51:24;;;;;;;3.40;3.10;;;6.10;99.90;;;;;;5012405;28;20229;-63
2022/01/24 12:53:53;;;;;;;2.80;2.60;;;6.10;99.90;;;;;;5012129;28;20308;-63
2022/01/24 12:56:25;;;;;;;3.15;2.40;;;6.20;99.90;;;;;;5012549;28;20308;-63
2022/01/24 12:58:55;;;;;;;3.97;3.00;;;6.30;99.90;;;;;;5012295;28;20237;-63
2022/01/24 13:01:29;;;;;;;2.65;2.45;;;6.30;99.90;;;;;;5012104;28;20280;-64
2022/01/24 13:03:59;;;;;;;3.00;2.80;;;6.40;99.90;;;;;;5011873;28;20233;-64
2022/01/24 13:06:28;;;;;;;3.13;2.72;;;6.50;99.90;;;;;;5012144;28;20229;-63
2022/01/24 13:08:58;;;;;;;3.10;2.47;;;6.50;99.90;;;;;;5011891;28;20237;-63
2022/01/24 13:11:28;;;;;;;5.40;3.00;;;6.60;99.90;;;;;;5012125;28;20232;-63
2022/01/24 13:14:06;;;;;;;2.67;2.35;;;6.50;99.90;;;;;;5011550;28;20634;-70
2022/01/24 13:22:19;;;;;;;3.10;2.90;;;6.70;99.90;;;;;;5011247;28;20229;-64
2022/01/24 13:25:06;;;;;;;3.30;3.10;;;6.70;99.90;;;;;;5011709;28;20305;-62
2022/01/24 13:27:35;;;;;;;3.97;3.58;;;6.60;99.90;;;;;;5011770;28;20201;-63
2022/01/24 13:30:07;;;;;;;2.92;2.72;;;6.60;99.90;;;;;;5011764;28;20296;-63
2022/01/24 13:32:51;;;;;;;3.10;2.65;;;6.60;99.90;;;;;;5011646;28;20233;-63
2022/01/24 13:35:26;;;;;;;2.90;2.70;;;6.50;99.90;;;;;;5011270;28;20197;-62
2022/01/24 13:37:59;;;;;;;3.72;2.90;;;6.50;99.90;;;;;;5011693;28;20243;-63
2022/01/24 13:40:36;;;;;;;2.53;2.33;;;6.50;99.90;;;;;;5011501;28;20280;-62
2022/01/24 13:43:06;;;;;;;3.75;2.67;;;6.40;99.90;;;;;;5011321;28;20229;-62
2022/01/24 13:45:37;;;;;;;3.25;2.63;;;6.30;99.90;;;;;;5011203;28;20649;-63
2022/01/24 13:48:15;;;;;;;3.40;2.75;;;6.40;99.90;;;;;;5011532;28;20212;-63
2022/01/24 13:50:49;;;;;;;3.25;3.05;;;6.40;99.90;;;;;;5011482;28;20566;-63
2022/01/24 13:53:34;;;;;;;3.55;2.92;;;6.30;99.90;;;;;;5011203;28;20267;-63
2022/01/24 13:56:16;;;;;;;2.95;2.75;;;6.40;99.90;;;;;;5011426;28;20735;-63
2022/01/24 13:58:58;;;;;;;3.97;3.15;;;6.40;99.90;;;;;;5011613;28;20594;-63
2022/01/24 14:01:27;;;;;;;2.95;2.75;;;6.40;99.90;;;;;;5011515;28;20295;-63
2022/01/24 14:03:57;;;;;;;2.47;1.90;;;6.40;99.90;;;;;;5010927;28;20632;-63
2022/01/24 14:06:30;;;;;;;2.90;2.55;;;6.40;99.90;;;;;;5011654;28;20607;-62
2022/01/24 14:09:08;;;;;;;2.45;2.22;;;6.40;99.90;;;;;;5011355;28;20236;-62
2022/01/24 14:11:41;;;;;;;3.28;2.63;;;6.40;99.90;;;;;;5009503;28;20288;-62
2022/01/24 14:14:12;;;;;;;4.70;2.55;;;6.30;99.90;;;;;;5008432;28;20244;-63
2022/01/24 14:16:51;;;;;;;2.70;2.40;;;6.20;99.90;;;;;;5011303;28;20240;-63
2022/01/24 14:19:29;;;;;;;2.53;2.25;;;6.30;99.90;;;;;;5011235;28;20288;-63
2022/01/24 14:22:02;;;;;;;2.47;2.05;;;6.20;99.90;;;;;;5011269;28;20324;-62
2022/01/24 14:24:47;;;;;;;4.28;2.85;;;6.20;99.90;;;;;;5010851;28;20271;-62
2022/01/24 14:27:36;;;;;;;2.38;2.17;;;6.30;99.90;;;;;;5011096;28;20292;-62
2022/01/24 14:30:31;;;;;;;2.60;2.40;;;6.40;99.90;;;;;;5011141;28;20254;-63
2022/01/24 14:33:04;;;;;;;2.60;2.40;;;6.20;99.90;;;;;;5010552;28;20267;-62
2022/01/24 14:35:37;;;;;;;2.72;2.53;;;6.20;99.90;;;;;;5014329;28;20236;-62